Aérodrome :
LOGIN :

S'inscrire | Disclaimer

   EN    FR    IT 

 










Légende :    VFR   VFR Marginal   IFR   IFR Intensif   IFR Très Intensif
Visi : 
Plafond : 
>= 8 km
>= 3000ft
5 à 8 km
1000 à 3000 ft
1500m à 5 km
500 à 1000 ft
800 à 1500m
200 à 500 ft
< 800m
< 200 ft
Symboles :   Orages  Brouillard  Fortes neiges  Fortes précipitations  Vent > 20 kt
SIGMETs :   Divers  Orages  Givrage  Turbulence  Onde Orograph.  Cendres Volcan.






- Altitude de l'aérodrome : 37 ft
- Code IATA : FRO


ENFL - Florø

DERNIER METAR :
  • 242320Z AUTO 33007KT 5000NDV OVC006/// 08/08 Q1023

METARs EXPIRÉS :
  • 242250Z AUTO 32010KT 5000NDV OVC006/// 09/08 Q1023
  • 242220Z AUTO 31012KT 5000NDV OVC005/// 09/08 Q1022
  • 242150Z 30008KT 250V320 6000 -DZ BR VV006 09/08 Q1021
  • 242120Z 30006KT 9999 8000W FEW006 SCT008 BKN010 09/08 Q1021
  • 242050Z 29008KT 9999 FEW008 BKN010 09/07 Q1021

TAF TAF ENFL
Valide du 24 à 21h jusqu'au 25 à 06h UTC


242000Z 2421/2506 30010KT 9999 FEW007 BKN015
TEMPO 2421/2506 3500 -DZ BR BKN007
BECMG 2503/2506 24008KT



MET'MAP, la Météo Aéronautique d'un coup d'oeil ! - Copyright ORBIFLY Décembre 2007 - Disclaimer

ORBIFLY MET'MAP TEAM :

Programmation & Développement : Alexandra Zaïnal
Sur une idée originale de : Baudouin d'Aumeries
Assistance à la programmation : Marc-Olivier Méhu
Soutien technique & logistique : Manuel Goepfert

Contact : metmap@orbifly.com




SOURCES & CREDITS :

   NOAA